Time;durP1;ratioP1;P1;durP2;ratioP2;P2;SDS_P1;SDS_P2;PMS_P1;PMS_P2;Temp;Humidity;BMP_temperature;BMP_pressure;BME280_temperature;BME280_humidity;BME280_pressure;Samples;Min_cycle;Max_cycle;Signal;HPM_P1;HPM_P2
2023/01/04 00:03:08;;;;;;;29.10;17.80;;;;;;;1.27;80.88;101081.39;208147;1295;140818;-65
2023/01/04 00:08:11;;;;;;;29.40;17.70;;;;;;;1.34;81.02;101073.55;208698;1294;140407;-64
2023/01/04 00:13:15;;;;;;;34.30;19.60;;;;;;;1.38;81.35;101068.16;207822;1293;140207;-64
2023/01/04 00:18:19;;;;;;;35.80;19.20;;;;;;;1.38;81.11;101064.52;209258;1298;139786;-64
2023/01/04 00:23:23;;;;;;;33.20;17.70;;;;;;;1.39;81.05;101059.11;207471;1287;139253;-64
2023/01/04 00:28:25;;;;;;;35.70;19.80;;;;;;;1.48;81.22;101055.47;210183;1297;140591;-65
2023/01/04 00:33:27;;;;;;;34.00;21.00;;;;;;;1.57;81.21;101061.75;210429;1301;140273;-65
2023/01/04 00:38:31;;;;;;;35.70;18.90;;;;;;;1.60;80.95;101062.68;209831;1287;140618;-65
2023/01/04 00:43:36;;;;;;;34.20;18.50;;;;;;;1.60;80.62;101067.14;210156;1295;140620;-66
2023/01/04 00:48:39;;;;;;;38.10;20.50;;;;;;;1.57;80.42;101077.35;210379;1295;139992;-65
2023/01/04 00:53:42;;;;;;;37.90;18.50;;;;;;;1.57;80.49;101075.41;210303;1300;140770;-66
2023/01/04 00:58:46;;;;;;;33.10;19.50;;;;;;;1.52;80.35;101079.06;208158;1297;141240;-65
2023/01/04 01:03:57;;;;;;;34.10;18.30;;;;;;;1.33;79.48;101082.80;209301;1288;140792;-65
2023/01/04 01:09:02;;;;;;;37.80;19.50;;;;;;;1.18;79.93;101079.33;207797;1294;141511;-65
2023/01/04 01:14:07;;;;;;;31.10;17.70;;;;;;;1.13;80.19;101082.59;209314;1296;142799;-65
2023/01/04 01:19:11;;;;;;;32.30;17.70;;;;;;;1.15;80.18;101086.21;209385;1288;141656;-65
2023/01/04 01:24:16;;;;;;;32.20;17.90;;;;;;;1.11;80.12;101097.86;208010;1289;140033;-65
2023/01/04 01:29:19;;;;;;;29.90;16.90;;;;;;;1.04;80.49;101095.98;207837;1296;139489;-64
2023/01/04 01:34:23;;;;;;;35.40;18.80;;;;;;;1.02;80.60;101096.15;208787;1288;141408;-65
2023/01/04 01:39:26;;;;;;;30.50;16.80;;;;;;;1.05;80.81;101092.64;208335;1294;140588;-64
2023/01/04 01:44:42;;;;;;;34.30;17.80;;;;;;;1.09;81.01;101078.76;207912;1287;142092;-65
2023/01/04 01:49:49;;;;;;;35.70;18.70;;;;;;;1.17;81.16;101066.45;207746;1288;142066;-64
2023/01/04 01:55:03;;;;;;;31.20;17.20;;;;;;;1.25;81.39;101060.93;209143;1287;236690;-64
2023/01/04 02:00:11;;;;;;;33.80;19.50;;;;;;;1.22;81.12;101046.73;208763;1300;140661;-66
2023/01/04 02:05:16;;;;;;;33.00;17.00;;;;;;;1.17;81.09;101037.01;208938;1295;139706;-68
2023/01/04 02:10:22;;;;;;;29.50;16.60;;;;;;;1.08;80.92;101038.40;209015;1295;221606;-67
2023/01/04 02:15:29;;;;;;;26.10;17.70;;;;;;;1.07;80.80;101046.89;208541;1288;140779;-65
2023/01/04 02:21:01;;;;;;;30.50;18.90;;;;;;;1.04;80.94;101045.78;208503;1295;142485;-65
2023/01/04 02:26:39;;;;;;;30.80;18.50;;;;;;;0.97;80.87;101036.59;208693;1293;140628;-65
2023/01/04 02:31:49;;;;;;;;;;;;;;;0.85;80.50;101036.78;208386;1294;140165;-65
2023/01/04 02:36:55;;;;;;;32.00;16.80;;;;;;;0.71;80.18;101031.16;211100;1295;126933;-66
2023/01/04 02:42:24;;;;;;;41.30;20.10;;;;;;;0.47;80.01;101020.17;210502;1294;140332;-65
2023/01/04 02:52:51;;;;;;;37.40;19.50;;;;;;;0.25;80.12;101015.98;210277;1294;249299;-67
2023/01/04 02:58:06;;;;;;;35.30;19.60;;;;;;;0.20;80.42;101004.59;209844;1288;140114;-67
2023/01/04 03:08:57;;;;;;;32.00;17.70;;;;;;;0.05;80.21;100990.91;208539;1287;139374;-64
2023/01/04 03:14:15;;;;;;;38.20;20.20;;;;;;;-0.08;80.27;100988.09;207799;1287;206502;-64
2023/01/04 03:19:50;;;;;;;27.90;17.50;;;;;;;-0.21;80.15;100985.70;208495;1287;246753;-64
2023/01/04 03:36:07;;;;;;;39.70;23.80;;;;;;;-0.17;81.66;100963.87;207699;1292;142136;-64
2023/01/04 03:52:16;;;;;;;32.60;19.80;;;;;;;-0.43;81.00;100945.38;208629;1295;140709;-64
2023/01/04 03:57:22;;;;;;;37.10;22.50;;;;;;;-0.46;81.08;100946.69;207838;1289;141333;-65
2023/01/04 04:02:29;;;;;;;36.80;20.00;;;;;;;-0.50;81.49;100939.88;208379;1294;140558;-64
2023/01/04 04:12:56;;;;;;;37.90;22.40;;;;;;;-0.54;81.95;100927.66;208502;1289;247248;-64
2023/01/04 04:17:59;;;;;;;39.40;22.70;;;;;;;-0.48;81.98;100921.02;208690;1288;140725;-65
2023/01/04 04:23:03;;;;;;;38.10;22.30;;;;;;;-0.50;82.03;100914.89;207733;1289;140554;-65
2023/01/04 04:28:05;;;;;;;38.50;20.80;;;;;;;-0.58;82.02;100904.25;209498;1294;140689;-65
2023/01/04 04:33:08;;;;;;;41.50;24.30;;;;;;;-0.66;81.92;100895.54;208663;1295;141327;-64
2023/01/04 04:38:11;;;;;;;49.00;23.20;;;;;;;-0.73;81.98;100890.08;209456;1299;140145;-65
2023/01/04 04:43:13;;;;;;;50.30;22.90;;;;;;;-0.68;82.59;100892.58;210254;1302;140334;-65
2023/01/04 04:48:17;;;;;;;39.50;22.70;;;;;;;-0.58;82.88;100893.98;210451;1294;141217;-65
2023/01/04 04:53:21;;;;;;;34.10;22.70;;;;;;;-0.49;82.73;100887.61;209686;1300;140926;-65
2023/01/04 04:58:24;;;;;;;16.10;9.70;;;;;;;-0.50;82.67;100885.19;208495;1295;141793;-64
2023/01/04 05:03:28;;;;;;;45.30;24.80;;;;;;;-0.49;83.09;100892.33;209324;1295;141340;-64
2023/01/04 05:08:32;;;;;;;35.90;21.70;;;;;;;-0.40;83.07;100895.86;209084;1281;140893;-65
2023/01/04 05:13:37;;;;;;;42.20;22.90;;;;;;;-0.32;83.09;100885.39;208478;1287;141992;-65
2023/01/04 05:18:42;;;;;;;37.10;23.60;;;;;;;-0.31;83.05;100870.11;208294;1286;141089;-66
2023/01/04 05:23:45;;;;;;;35.80;20.20;;;;;;;-0.35;83.24;100858.52;208684;1293;140150;-64
2023/01/04 05:28:47;;;;;;;52.30;25.90;;;;;;;-0.36;83.13;100847.27;208314;1295;143694;-64
2023/01/04 05:33:56;;;;;;;47.20;25.00;;;;;;;-0.27;83.76;100844.38;207993;1295;141204;-65
2023/01/04 05:38:59;;;;;;;38.80;22.50;;;;;;;-0.18;83.78;100851.79;208919;1287;141718;-65
2023/01/04 05:44:02;;;;;;;40.70;23.00;;;;;;;-0.17;83.66;100845.81;207306;1296;141860;-65
2023/01/04 05:49:04;;;;;;;37.50;19.40;;;;;;;-0.26;83.60;100834.02;207877;1287;140832;-65
2023/01/04 05:54:07;;;;;;;61.30;30.70;;;;;;;-0.31;83.82;100823.09;208026;1288;141319;-64
2023/01/04 05:59:10;;;;;;;39.00;22.50;;;;;;;-0.24;84.15;100812.40;208012;1288;141322;-62
2023/01/04 06:04:12;;;;;;;59.20;38.80;;;;;;;-0.27;83.75;100805.34;209103;1288;141194;-64
2023/01/04 06:09:15;;;;;;;39.40;22.80;;;;;;;-0.30;84.10;100791.12;209146;1281;139764;-63
2023/01/04 06:14:19;;;;;;;34.10;20.80;;;;;;;-0.29;84.33;100783.64;209381;1294;140578;-65
2023/01/04 06:19:22;;;;;;;31.60;17.20;;;;;;;-0.23;83.95;100783.77;209194;1296;141282;-64
2023/01/04 06:24:25;;;;;;;39.50;21.80;;;;;;;-0.24;84.00;100786.99;209519;1291;142096;-63
2023/01/04 06:29:28;;;;;;;32.60;17.20;;;;;;;-0.26;84.08;100783.52;210244;1289;141196;-62
2023/01/04 06:34:32;;;;;;;41.40;21.60;;;;;;;-0.21;84.02;100783.22;209986;1291;141652;-66
2023/01/04 06:39:36;;;;;;;41.30;22.00;;;;;;;-0.16;84.21;100794.88;210197;1297;152173;-66
2023/01/04 06:44:38;;;;;;;37.30;22.00;;;;;;;-0.15;84.05;100793.73;210307;1294;141132;-65
2023/01/04 06:49:41;;;;;;;37.00;19.80;;;;;;;-0.16;83.80;100795.38;210022;1297;140466;-64
2023/01/04 06:54:44;;;;;;;38.80;21.30;;;;;;;-0.23;83.59;100785.73;210044;1294;141423;-65
2023/01/04 06:59:47;;;;;;;26.40;17.00;;;;;;;-0.29;83.72;100777.84;209616;1297;140815;-66
2023/01/04 07:04:51;;;;;;;41.80;20.50;;;;;;;-0.35;83.69;100764.08;208970;1295;141006;-66
2023/01/04 07:09:55;;;;;;;34.90;20.40;;;;;;;-0.36;83.51;100758.92;208255;1296;141246;-62
2023/01/04 07:14:58;;;;;;;28.90;20.70;;;;;;;-0.40;83.59;100755.11;208910;1294;142087;-66
2023/01/04 07:20:05;;;;;;;46.70;24.50;;;;;;;-0.38;84.20;100745.69;209173;1294;140176;-65
2023/01/04 07:25:08;;;;;;;40.00;23.20;;;;;;;-0.27;84.13;100741.88;209582;1288;140783;-63
2023/01/04 07:30:11;;;;;;;34.50;18.80;;;;;;;-0.14;84.26;100751.13;208596;1287;141943;-64
2023/01/04 07:35:14;;;;;;;33.50;18.50;;;;;;;-0.02;84.10;100748.10;208210;1295;141585;-63
2023/01/04 07:40:16;;;;;;;38.30;23.50;;;;;;;0.03;84.15;100740.67;207904;1297;140637;-62
2023/01/04 07:45:19;;;;;;;29.00;17.00;;;;;;;0.09;84.44;100740.99;208311;1288;140449;-61
2023/01/04 07:50:21;;;;;;;25.70;16.60;;;;;;;0.13;84.41;100735.02;208035;1288;141788;-62
2023/01/04 07:55:24;;;;;;;32.40;18.40;;;;;;;0.20;84.23;100720.88;207373;1287;224623;-61
2023/01/04 08:00:26;;;;;;;26.10;16.80;;;;;;;0.25;84.89;100715.18;207561;1288;141190;-61
2023/01/04 08:05:32;;;;;;;32.50;16.40;;;;;;;0.31;84.87;100703.90;207441;1288;140914;-59
2023/01/04 08:10:35;;;;;;;39.80;22.50;;;;;;;0.40;84.95;100694.64;208855;1288;140164;-62
2023/01/04 08:15:37;;;;;;;31.20;20.40;;;;;;;0.54;85.24;100692.29;208327;1284;140081;-63
2023/01/04 08:20:40;;;;;;;32.70;20.00;;;;;;;0.70;85.27;100685.11;208195;1287;161883;-61
2023/01/04 08:25:42;;;;;;;46.50;21.60;;;;;;;0.87;85.25;100674.23;207509;1288;139780;-62
2023/01/04 08:30:45;;;;;;;29.00;15.70;;;;;;;1.02;85.62;100651.17;208516;1295;141326;-60
2023/01/04 08:35:48;;;;;;;33.10;18.10;;;;;;;1.19;85.43;100644.30;208150;1287;143178;-62
2023/01/04 08:40:52;;;;;;;28.30;18.30;;;;;;;1.34;85.53;100631.90;210313;1281;140446;-64
2023/01/04 08:46:05;;;;;;;36.20;20.00;;;;;;;1.53;85.81;100617.70;210319;1295;235237;-68
2023/01/04 08:51:15;;;;;;;29.60;17.90;;;;;;;1.73;85.54;100619.90;208300;1289;142865;-67
2023/01/04 08:56:19;;;;;;;27.90;16.90;;;;;;;1.91;85.56;100617.81;209383;1290;141437;-66
2023/01/04 09:01:23;;;;;;;26.20;16.60;;;;;;;2.09;85.51;100605.01;209023;1294;139973;-66
2023/01/04 09:06:28;;;;;;;25.50;16.40;;;;;;;2.25;85.51;100583.39;208001;1295;140595;-67
2023/01/04 09:11:31;;;;;;;22.40;15.00;;;;;;;2.43;85.44;100581.40;208361;1293;140276;-66
2023/01/04 09:16:36;;;;;;;22.50;14.90;;;;;;;2.61;85.72;100581.42;207824;1287;141444;-67
2023/01/04 09:21:40;;;;;;;28.10;17.90;;;;;;;2.81;85.44;100573.12;208414;1297;140674;-68
2023/01/04 09:26:46;;;;;;;23.90;16.10;;;;;;;3.06;85.63;100572.52;208053;1287;139593;-67
2023/01/04 09:31:50;;;;;;;22.10;11.90;;;;;;;3.35;85.45;100564.13;207365;1296;140759;-68
2023/01/04 09:36:53;;;;;;;18.60;11.90;;;;;;;3.60;85.13;100551.77;207511;1296;141139;-67
2023/01/04 09:42:02;;;;;;;19.70;14.90;;;;;;;3.78;84.89;100545.98;207861;1288;139845;-63
2023/01/04 09:47:11;;;;;;;21.40;12.20;;;;;;;3.91;84.49;100525.48;209172;1296;139941;-63
2023/01/04 09:52:57;;;;;;;17.60;9.70;;;;;;;4.07;83.97;100502.01;207891;1295;140819;-63
2023/01/04 09:58:07;;;;;;;18.40;10.00;;;;;;;4.20;83.85;100476.77;208207;1295;139697;-63
2023/01/04 10:03:37;;;;;;;22.80;10.40;;;;;;;4.32;83.38;100467.88;208188;1289;140279;-64
2023/01/04 10:08:43;;;;;;;12.50;8.70;;;;;;;4.49;83.09;100446.23;207523;1281;140634;-64
2023/01/04 10:13:59;;;;;;;13.30;9.90;;;;;;;4.61;82.63;100421.16;207953;1295;140320;-63
2023/01/04 10:19:37;;;;;;;16.70;11.40;;;;;;;4.71;82.45;100408.86;208727;1287;141607;-64
2023/01/04 10:25:07;;;;;;;17.30;12.20;;;;;;;4.79;81.98;100394.63;209444;1292;140645;-64
2023/01/04 10:30:11;;;;;;;21.60;13.70;;;;;;;4.86;81.62;100370.19;208326;1291;139537;-64
2023/01/04 10:35:20;;;;;;;17.50;11.60;;;;;;;4.92;81.40;100361.84;210241;1294;141939;-66
2023/01/04 10:40:33;;;;;;;17.20;11.90;;;;;;;5.07;81.24;100337.70;209156;1302;142043;-65
2023/01/04 10:45:50;;;;;;;13.10;10.00;;;;;;;5.24;81.31;100332.85;208872;1289;141302;-65
2023/01/04 10:50:56;;;;;;;17.20;11.70;;;;;;;5.33;80.84;100332.40;209555;1297;139585;-66
2023/01/04 10:56:29;;;;;;;18.10;11.00;;;;;;;5.38;80.18;100319.48;209523;1295;221177;-64
2023/01/04 11:01:43;;;;;;;15.40;9.80;;;;;;;5.54;80.36;100302.85;208909;1282;140562;-65
2023/01/04 11:07:09;;;;;;;15.20;10.60;;;;;;;5.63;80.36;100286.55;208490;1290;139838;-65
2023/01/04 11:12:18;;;;;;;19.20;11.50;;;;;;;5.63;79.73;100263.77;207781;1290;141629;-64
2023/01/04 11:17:23;;;;;;;12.90;9.60;;;;;;;5.60;79.42;100240.98;208018;1295;140490;-65
2023/01/04 11:22:41;;;;;;;14.40;10.60;;;;;;;5.51;79.17;100218.38;207734;1291;140775;-65
2023/01/04 11:27:48;;;;;;;13.70;10.30;;;;;;;5.47;79.11;100209.44;208612;1288;207353;-67
2023/01/04 11:33:12;;;;;;;12.70;9.40;;;;;;;5.45;78.80;100202.98;208034;1291;140439;-65
2023/01/04 11:38:18;;;;;;;16.40;9.80;;;;;;;5.39;78.84;100196.44;207960;1297;140984;-65
2023/01/04 11:43:23;;;;;;;14.00;8.60;;;;;;;5.41;78.87;100182.48;208574;1297;139946;-65
2023/01/04 11:48:43;;;;;;;15.50;10.30;;;;;;;5.43;78.83;100165.38;207492;1295;142861;-66
2023/01/04 11:53:58;;;;;;;19.00;11.40;;;;;;;5.44;78.83;100153.71;208715;1295;140950;-66
2023/01/04 11:59:12;;;;;;;14.20;7.70;;;;;;;5.49;78.55;100134.92;208106;1288;141092;-64
2023/01/04 12:04:27;;;;;;;14.90;7.60;;;;;;;5.59;78.52;100117.32;209098;1294;140824;-65
2023/01/04 12:09:37;;;;;;;11.10;7.90;;;;;;;5.63;78.23;100102.55;209304;1288;140518;-67
2023/01/04 12:14:47;;;;;;;12.50;6.90;;;;;;;5.64;77.94;100091.05;208285;1291;141572;-66
2023/01/04 12:19:55;;;;;;;11.90;6.80;;;;;;;5.66;77.85;100067.86;210434;1294;140446;-66
2023/01/04 12:24:59;;;;;;;;;;;;;;;5.69;77.69;100051.12;210357;1295;140467;-66
2023/01/04 12:30:06;;;;;;;14.40;8.10;;;;;;;5.67;77.33;100038.49;211137;1295;126112;-66
2023/01/04 12:35:48;;;;;;;8.20;6.00;;;;;;;5.68;77.22;100026.90;210042;1294;140052;-67
2023/01/04 12:40:53;;;;;;;17.00;10.10;;;;;;;5.67;77.30;100017.86;209089;1288;139748;-66
2023/01/04 12:52:13;;;;;;;11.80;8.00;;;;;;;5.61;76.86;99992.44;208829;1301;140818;-66
2023/01/04 12:57:38;;;;;;;10.10;7.00;;;;;;;5.56;76.48;99980.69;209046;1294;140489;-66
2023/01/04 13:03:06;;;;;;;10.60;6.90;;;;;;;5.51;76.36;99965.58;208148;1294;141805;-63
2023/01/04 13:08:14;;;;;;;15.90;8.30;;;;;;;5.51;76.53;99947.39;208435;1284;140323;-66
2023/01/04 13:13:37;;;;;;;9.80;7.60;;;;;;;5.46;76.46;99935.11;207676;1288;142930;-67
2023/01/04 13:18:58;;;;;;;13.40;8.30;;;;;;;5.43;76.38;99916.95;208246;1287;140143;-63
2023/01/04 13:24:29;;;;;;;11.00;8.00;;;;;;;5.45;76.30;99904.02;207684;1287;139789;-62
2023/01/04 13:29:35;;;;;;;12.30;7.90;;;;;;;5.48;76.07;99894.33;208361;1295;139924;-63
2023/01/04 13:35:00;;;;;;;10.90;7.30;;;;;;;5.48;76.18;99876.83;207527;1295;140399;-64
2023/01/04 13:40:22;;;;;;;9.70;7.10;;;;;;;5.49;76.09;99858.89;207744;1287;140205;-67
2023/01/04 13:45:46;;;;;;;10.70;7.50;;;;;;;5.49;75.96;99852.06;209011;1288;140053;-66
2023/01/04 13:51:10;;;;;;;17.20;7.70;;;;;;;5.50;75.72;99849.33;208850;1287;139692;-66
2023/01/04 13:56:20;;;;;;;10.30;7.20;;;;;;;5.55;75.61;99835.14;208638;1300;140300;-64
2023/01/04 14:01:29;;;;;;;9.00;6.90;;;;;;;5.59;75.77;99834.98;208801;1289;139420;-67
2023/01/04 14:06:48;;;;;;;12.30;6.30;;;;;;;5.62;75.68;99830.73;208781;1291;139491;-67
2023/01/04 14:12:02;;;;;;;8.40;6.30;;;;;;;5.63;75.79;99820.52;208021;1287;141058;-67
2023/01/04 14:17:18;;;;;;;11.20;7.20;;;;;;;5.56;76.28;99818.33;209898;1294;139825;-67
2023/01/04 14:22:25;;;;;;;15.30;7.30;;;;;;;5.47;76.99;99808.48;208734;1288;141542;-63
2023/01/04 14:27:37;;;;;;;13.10;9.10;;;;;;;5.37;76.95;99795.45;210325;1294;141019;-67
2023/01/04 14:32:41;;;;;;;17.70;10.80;;;;;;;5.26;77.18;99783.93;210345;1295;140980;-66
2023/01/04 14:37:46;;;;;;;13.90;10.70;;;;;;;5.19;77.83;99764.53;208141;1288;141667;-66
2023/01/04 14:42:50;;;;;;;14.30;10.00;;;;;;;5.12;78.33;99763.33;208942;1288;141673;-66
2023/01/04 14:47:55;;;;;;;12.10;10.00;;;;;;;5.01;78.22;99751.02;209577;1296;140766;-66
2023/01/04 14:53:01;;;;;;;10.90;8.10;;;;;;;4.94;78.62;99746.56;209222;1302;141342;-65
2023/01/04 14:58:07;;;;;;;9.10;6.30;;;;;;;4.88;78.88;99742.68;209217;1288;140849;-66
2023/01/04 15:03:10;;;;;;;11.60;6.10;;;;;;;4.82;79.16;99733.56;209130;1289;139139;-66
2023/01/04 15:08:13;;;;;;;14.20;8.30;;;;;;;4.78;79.53;99725.66;208347;1290;153607;-66
2023/01/04 15:13:15;;;;;;;8.40;6.10;;;;;;;4.74;79.74;99712.45;208955;1287;141024;-63
2023/01/04 15:18:19;;;;;;;6.80;4.30;;;;;;;4.71;80.17;99701.90;208044;1292;432488;-62
2023/01/04 15:23:25;;;;;;;8.20;6.70;;;;;;;4.66;80.48;99685.42;207480;1293;141310;-63
2023/01/04 15:28:32;;;;;;;10.00;7.10;;;;;;;4.64;80.68;99679.98;207879;1301;140741;-66
2023/01/04 15:33:37;;;;;;;7.60;5.70;;;;;;;4.66;80.99;99665.56;208325;1288;140217;-64
2023/01/04 15:38:42;;;;;;;10.50;5.80;;;;;;;4.65;81.23;99659.91;208588;1293;141085;-65
2023/01/04 15:43:46;;;;;;;8.40;6.90;;;;;;;4.63;81.37;99646.79;208999;1301;139104;-64
2023/01/04 15:48:49;;;;;;;7.30;6.60;;;;;;;4.61;81.56;99631.71;207931;1288;139592;-63
2023/01/04 15:53:52;;;;;;;9.20;5.40;;;;;;;4.61;81.85;99627.77;208718;1294;140825;-66
2023/01/04 15:58:59;;;;;;;9.70;6.20;;;;;;;4.64;82.11;99621.00;208388;1291;140590;-67
2023/01/04 16:04:10;;;;;;;10.40;5.80;;;;;;;4.63;82.14;99611.36;209095;1294;139992;-62
2023/01/04 16:09:14;;;;;;;9.00;5.80;;;;;;;4.67;82.50;99597.33;208844;1288;140711;-64
2023/01/04 16:14:17;;;;;;;19.20;13.50;;;;;;;4.72;82.47;99581.38;208656;1290;140568;-67
2023/01/04 16:19:21;;;;;;;15.70;12.80;;;;;;;4.73;82.69;99577.16;210291;1287;140372;-68
2023/01/04 16:24:25;;;;;;;19.10;13.20;;;;;;;4.74;82.97;99558.88;209937;1284;140243;-68
2023/01/04 16:29:49;;;;;;;12.10;8.10;;;;;;;4.77;82.65;99546.53;210340;1294;140491;-67
2023/01/04 16:34:52;;;;;;;14.60;12.20;;;;;;;4.81;82.95;99545.53;209954;1295;140350;-69
2023/01/04 16:39:55;;;;;;;8.90;6.90;;;;;;;4.88;83.37;99543.05;208100;1293;141186;-67
2023/01/04 16:45:10;;;;;;;10.80;8.70;;;;;;;4.94;83.27;99529.99;209550;1294;140146;-67
2023/01/04 16:50:12;;;;;;;5.40;4.80;;;;;;;4.96;83.49;99522.85;208786;1281;140518;-66
2023/01/04 16:55:16;;;;;;;9.70;6.50;;;;;;;4.97;83.66;99504.48;209159;1296;140468;-64
2023/01/04 17:00:25;;;;;;;8.30;6.70;;;;;;;4.99;83.68;99494.64;208445;1296;141973;-63
2023/01/04 17:05:27;;;;;;;10.40;5.70;;;;;;;5.03;84.14;99487.37;209266;1287;143404;-63
2023/01/04 17:10:29;;;;;;;6.40;5.70;;;;;;;5.06;83.87;99482.13;208688;1289;141075;-65
2023/01/04 17:15:32;;;;;;;10.40;7.80;;;;;;;5.10;83.98;99474.73;209294;1293;141109;-69
2023/01/04 17:20:56;;;;;;;10.90;9.60;;;;;;;5.15;84.21;99461.02;207431;1295;224153;-64
2023/01/04 17:26:25;;;;;;;11.30;6.40;;;;;;;5.17;84.32;99447.56;208045;1288;141735;-64
2023/01/04 17:31:32;;;;;;;10.50;8.70;;;;;;;5.15;84.62;99442.66;207675;1287;139054;-67
2023/01/04 17:36:37;;;;;;;7.20;6.30;;;;;;;5.16;84.36;99436.10;208772;1287;139907;-64
2023/01/04 17:41:41;;;;;;;7.80;5.50;;;;;;;5.15;84.50;99425.21;207630;1294;140392;-65
2023/01/04 17:46:49;;;;;;;12.60;10.30;;;;;;;5.13;84.81;99423.02;208759;1294;140420;-64
2023/01/04 17:51:54;;;;;;;7.60;5.80;;;;;;;5.15;84.81;99419.00;207816;1288;210010;-64
2023/01/04 17:56:59;;;;;;;9.60;8.60;;;;;;;5.16;84.88;99407.00;208856;1295;140644;-66
2023/01/04 18:02:03;;;;;;;11.00;6.30;;;;;;;5.20;84.79;99392.55;208930;1293;140456;-64
2023/01/04 18:07:06;;;;;;;8.30;5.20;;;;;;;5.22;84.95;99374.56;208725;1280;140666;-65
2023/01/04 18:12:09;;;;;;;8.80;6.40;;;;;;;5.25;84.93;99372.40;209399;1300;139734;-68
2023/01/04 18:17:13;;;;;;;7.50;5.80;;;;;;;5.27;85.12;99363.80;209958;1295;139885;-67
2023/01/04 18:22:17;;;;;;;7.60;5.40;;;;;;;5.31;84.99;99363.64;208706;1295;140913;-65
2023/01/04 18:27:20;;;;;;;5.10;4.30;;;;;;;5.31;85.01;99357.70;209691;1292;140307;-66
2023/01/04 18:32:27;;;;;;;8.00;5.10;;;;;;;5.29;85.35;99354.09;210501;1301;139522;-66
2023/01/04 18:37:32;;;;;;;6.90;4.90;;;;;;;5.31;85.17;99343.55;210145;1301;151885;-66
2023/01/04 18:42:36;;;;;;;9.80;7.50;;;;;;;5.35;85.32;99339.89;209777;1294;141430;-67
2023/01/04 18:47:40;;;;;;;6.20;5.10;;;;;;;5.41;85.56;99326.40;209824;1296;141305;-67
2023/01/04 18:52:44;;;;;;;7.90;5.70;;;;;;;5.42;85.64;99317.52;207968;1294;139606;-66
2023/01/04 18:57:48;;;;;;;6.40;5.20;;;;;;;5.44;85.31;99312.80;208306;1293;139680;-67
2023/01/04 19:02:53;;;;;;;7.70;5.00;;;;;;;5.45;85.65;99304.09;209109;1294;139907;-66
2023/01/04 19:07:59;;;;;;;;;;;;;;;5.49;86.08;99297.08;208586;1300;140658;-66
2023/01/04 19:13:02;;;;;;;6.70;4.80;;;;;;;5.53;86.13;99293.38;210158;1288;126836;-66
2023/01/04 19:18:06;;;;;;;6.10;5.30;;;;;;;5.55;86.38;99283.35;208609;1295;140258;-66
2023/01/04 19:23:11;;;;;;;8.10;6.40;;;;;;;5.58;86.39;99268.70;208907;1298;139059;-66
2023/01/04 19:28:14;;;;;;;11.10;5.20;;;;;;;5.59;86.33;99271.86;209496;1301;143070;-66
2023/01/04 19:33:20;;;;;;;5.50;4.80;;;;;;;5.60;86.17;99269.58;208727;1300;140098;-66
2023/01/04 19:38:26;;;;;;;9.20;6.40;;;;;;;5.63;86.64;99251.98;207959;1301;141197;-66
2023/01/04 19:43:30;;;;;;;6.90;5.00;;;;;;;5.69;86.40;99244.17;208846;1295;141708;-67
2023/01/04 19:48:34;;;;;;;7.60;5.00;;;;;;;5.70;86.54;99239.13;209423;1301;245105;-66
2023/01/04 19:53:39;;;;;;;5.50;4.90;;;;;;;5.70;86.80;99240.20;207782;1295;141031;-66
2023/01/04 19:58:47;;;;;;;8.10;6.40;;;;;;;5.70;86.93;99244.21;208701;1293;141178;-66
2023/01/04 20:03:53;;;;;;;12.80;6.90;;;;;;;5.72;87.10;99228.45;207850;1300;139758;-66
2023/01/04 20:08:58;;;;;;;5.10;4.60;;;;;;;5.75;87.30;99215.25;209300;1300;140602;-67
2023/01/04 20:14:02;;;;;;;6.00;4.90;;;;;;;5.80;87.25;99218.84;209966;1295;142150;-67
2023/01/04 20:19:06;;;;;;;8.40;5.80;;;;;;;5.84;87.45;99214.17;209383;1296;141487;-66
2023/01/04 20:24:11;;;;;;;8.20;5.90;;;;;;;5.92;87.49;99199.48;210398;1294;140018;-66
2023/01/04 20:29:15;;;;;;;5.30;4.80;;;;;;;6.00;87.43;99191.91;210381;1289;141792;-66
2023/01/04 20:34:18;;;;;;;7.70;6.60;;;;;;;6.06;87.29;99186.14;209885;1294;141278;-67
2023/01/04 20:39:21;;;;;;;8.10;5.50;;;;;;;6.14;87.52;99180.47;210037;1291;141079;-67
2023/01/04 20:44:24;;;;;;;7.80;6.50;;;;;;;6.16;87.55;99178.66;210386;1294;139348;-66
2023/01/04 20:49:27;;;;;;;10.20;7.60;;;;;;;6.20;87.10;99166.52;209143;1294;139823;-65
2023/01/04 20:54:31;;;;;;;10.80;6.00;;;;;;;6.23;87.73;99153.80;208572;1291;141352;-66
2023/01/04 20:59:34;;;;;;;6.10;5.50;;;;;;;6.26;87.74;99141.39;209508;1288;141188;-66
2023/01/04 21:04:37;;;;;;;7.80;6.20;;;;;;;6.33;87.65;99139.80;209471;1296;141603;-66
2023/01/04 21:09:47;;;;;;;4.90;4.40;;;;;;;6.37;88.16;99132.99;207657;1288;142553;-66
2023/01/04 21:14:51;;;;;;;5.90;5.30;;;;;;;6.38;87.61;99129.33;208991;1294;140276;-66
2023/01/04 21:19:56;;;;;;;7.20;6.20;;;;;;;6.39;87.98;99125.36;208355;1294;140270;-67
2023/01/04 21:24:59;;;;;;;7.70;6.20;;;;;;;6.41;88.17;99119.13;208102;1295;140420;-64
2023/01/04 21:30:03;;;;;;;6.10;5.40;;;;;;;6.47;88.28;99107.98;208171;1295;140634;-67
2023/01/04 21:35:07;;;;;;;7.20;5.50;;;;;;;6.52;88.61;99106.53;208035;1295;140733;-67
2023/01/04 21:40:09;;;;;;;6.50;5.30;;;;;;;6.59;88.74;99103.06;207809;1293;140937;-66
2023/01/04 21:45:12;;;;;;;5.50;5.00;;;;;;;6.65;88.82;99088.15;208210;1291;141510;-66
2023/01/04 21:50:14;;;;;;;6.00;5.40;;;;;;;6.67;88.99;99092.77;207612;1293;140600;-66
2023/01/04 21:55:19;;;;;;;4.60;3.90;;;;;;;6.70;88.61;99078.06;209204;1295;142171;-67
2023/01/04 22:00:22;;;;;;;8.20;6.80;;;;;;;6.72;88.30;99072.66;209343;1297;140927;-67
2023/01/04 22:05:24;;;;;;;7.80;7.00;;;;;;;6.71;88.25;99065.65;208759;1294;140032;-66
2023/01/04 22:10:28;;;;;;;8.60;5.50;;;;;;;6.73;88.34;99058.15;209341;1293;140379;-66
2023/01/04 22:15:31;;;;;;;7.90;5.70;;;;;;;6.76;88.43;99042.02;208702;1294;140436;-66
2023/01/04 22:20:35;;;;;;;5.90;5.40;;;;;;;6.79;88.18;99025.99;208925;1295;140609;-67
2023/01/04 22:25:37;;;;;;;6.00;5.30;;;;;;;6.81;88.33;99032.12;209943;1288;141212;-66
2023/01/04 22:30:41;;;;;;;7.30;5.80;;;;;;;6.81;88.20;99026.21;210060;1300;140497;-67
2023/01/04 22:35:45;;;;;;;5.40;4.90;;;;;;;6.83;88.30;99018.23;210374;1300;140234;-67
2023/01/04 22:40:48;;;;;;;4.80;4.30;;;;;;;6.88;88.26;99017.52;209953;1295;140272;-67
2023/01/04 22:45:59;;;;;;;8.10;4.90;;;;;;;6.95;88.54;99006.20;208589;1281;140302;-65
2023/01/04 22:51:22;;;;;;;4.10;3.70;;;;;;;7.00;88.17;98990.13;208701;1294;140547;-66
2023/01/04 22:56:26;;;;;;;4.30;3.90;;;;;;;7.07;88.09;98974.77;209069;1296;141726;-66
2023/01/04 23:01:33;;;;;;;4.80;3.00;;;;;;;7.10;88.42;98967.64;209263;1294;139661;-67
2023/01/04 23:06:37;;;;;;;4.80;2.90;;;;;;;7.11;88.39;98959.19;209014;1294;140914;-68
2023/01/04 23:11:41;;;;;;;3.60;3.10;;;;;;;7.14;88.12;98949.48;207607;1296;141539;-66
2023/01/04 23:16:45;;;;;;;3.90;3.20;;;;;;;7.15;88.19;98949.99;207639;1287;143798;-66
2023/01/04 23:21:50;;;;;;;2.70;2.50;;;;;;;7.15;88.34;98938.23;208333;1285;141170;-66
2023/01/04 23:26:53;;;;;;;5.40;3.50;;;;;;;7.16;88.18;98936.02;208302;1290;140828;-66
2023/01/04 23:31:58;;;;;;;4.10;3.10;;;;;;;7.19;88.31;98925.05;207869;1281;140435;-66
2023/01/04 23:37:01;;;;;;;2.80;2.60;;;;;;;7.20;88.52;98918.26;208396;1297;140684;-67
2023/01/04 23:42:07;;;;;;;4.00;3.20;;;;;;;7.22;88.18;98914.23;208669;1284;139890;-66
2023/01/04 23:47:11;;;;;;;4.00;3.70;;;;;;;7.25;88.06;98904.35;209276;1296;140944;-67
2023/01/04 23:52:14;;;;;;;3.10;2.80;;;;;;;7.28;88.09;98897.76;207896;1291;141049;-67
2023/01/04 23:57:17;;;;;;;2.80;2.30;;;;;;;7.33;88.32;98893.39;208722;1295;142254;-67
